Terminal Aerodrome Forecast
Issued by NWS

Home | Current Version | Previous Version | Text Only | Print | Product List | Glossary On
Versions: 1 2 3 4 5 6 7 8 9 10 11 12 13 14 15 16 17 18 19
104
FTUS43 KILX 211731
TAFCMI
TAF
KCMI 211731Z 2118/2218 20014G22KT P6SM FEW250
     FM212200 21006KT P6SM BKN250
     FM220600 VRB03KT 3SM BR BKN050
     FM221100 05005KT 1 1/2SM BR VCSH OVC025=

USA.gov is the U.S. government's official web portal to all federal, state and local government web resources and services.